createdAt,value
2022-09-09T00:01:16.743Z,100402.38
2022-09-09T00:03:52.375Z,100394.31
2022-09-09T00:06:56.181Z,100382.63
2022-09-09T00:09:28.698Z,100391.34
2022-09-09T00:12:20.139Z,100390.19
2022-09-09T00:15:01.305Z,100394.16
2022-09-09T00:17:43.808Z,100391.19
2022-09-09T00:20:21.403Z,100390.69
2022-09-09T00:23:12.804Z,100391.50
2022-09-09T00:25:52.570Z,100385.75
2022-09-09T00:28:23.217Z,100383.63
2022-09-09T00:30:49.792Z,100381.63
2022-09-09T00:33:22.100Z,100387.19
2022-09-09T00:35:51.973Z,100389.81
2022-09-09T00:38:33.202Z,100382.25
2022-09-09T00:41:06.441Z,100390.16
2022-09-09T00:43:36.979Z,100389.00
2022-09-09T00:46:07.187Z,100379.44
2022-09-09T00:48:46.804Z,100385.53
2022-09-09T00:51:31.839Z,100390.28
2022-09-09T00:54:11.774Z,100390.44
2022-09-09T00:56:43.313Z,100385.50
2022-09-09T00:59:31.239Z,100384.00
2022-09-09T01:01:58.218Z,100384.16
2022-09-09T01:04:35.009Z,100381.38
2022-09-09T01:07:16.506Z,100386.13
2022-09-09T01:09:57.357Z,100379.19
2022-09-09T01:12:44.776Z,100376.19
2022-09-09T01:15:13.211Z,100378.16
2022-09-09T01:18:08.603Z,100379.16
2022-09-09T01:21:01.358Z,100371.59
2022-09-09T01:24:06.866Z,100383.53
2022-09-09T01:26:39.079Z,100367.41
2022-09-09T01:29:09.976Z,100371.69
2022-09-09T01:31:42.315Z,100376.31
2022-09-09T01:34:13.436Z,100381.38
2022-09-09T01:36:47.293Z,100376.13
2022-09-09T01:39:14.550Z,100380.06
2022-09-09T01:41:40.952Z,100377.91
2022-09-09T01:44:08.876Z,100368.53
2022-09-09T01:46:35.425Z,100366.88
2022-09-09T01:49:03.988Z,100372.00
2022-09-09T01:51:31.418Z,100365.75
2022-09-09T01:53:57.941Z,100370.84
2022-09-09T01:56:40.954Z,100365.25
2022-09-09T01:59:28.939Z,100363.44
2022-09-09T02:02:17.321Z,100371.84
2022-09-09T02:05:17.202Z,100369.25
2022-09-09T02:07:50.942Z,100378.50
2022-09-09T02:10:31.371Z,100382.44
2022-09-09T02:13:18.437Z,100377.22
2022-09-09T02:16:01.104Z,100376.91
2022-09-09T02:18:46.535Z,100367.84
2022-09-09T02:21:14.805Z,100370.00
2022-09-09T02:23:43.684Z,100364.59
2022-09-09T02:26:14.230Z,100366.38
2022-09-09T02:28:43.143Z,100365.06
2022-09-09T02:31:10.182Z,100366.06
2022-09-09T02:33:44.272Z,100360.13
2022-09-09T02:36:17.130Z,100367.84
2022-09-09T02:38:51.530Z,100358.63
2022-09-09T02:41:27.014Z,100364.41
2022-09-09T02:43:53.456Z,100363.75
2022-09-09T02:46:26.027Z,100359.81
2022-09-09T02:48:58.163Z,100347.31
2022-09-09T02:51:57.811Z,100355.72
2022-09-09T02:54:29.706Z,100352.25
2022-09-09T02:56:57.271Z,100345.69
2022-09-09T02:59:26.119Z,100343.91
2022-09-09T03:01:52.640Z,100343.22
2022-09-09T03:04:19.043Z,100338.78
2022-09-09T03:06:45.654Z,100348.16
2022-09-09T03:09:12.160Z,100341.44
2022-09-09T03:11:39.417Z,100335.81
2022-09-09T03:14:05.882Z,100334.19
2022-09-09T03:16:34.341Z,100345.69
2022-09-09T03:19:02.188Z,100337.66
2022-09-09T03:21:28.712Z,100342.09
2022-09-09T03:23:55.269Z,100344.72
2022-09-09T03:26:22.125Z,100333.34
2022-09-09T03:28:48.499Z,100338.63
2022-09-09T03:31:15.616Z,100335.97
2022-09-09T03:33:42.306Z,100339.78
2022-09-09T03:36:09.481Z,100346.69
2022-09-09T03:38:36.027Z,100340.44
2022-09-09T03:41:03.028Z,100338.13
2022-09-09T03:43:30.472Z,100344.53
2022-09-09T03:46:00.279Z,100348.66
2022-09-09T03:48:29.034Z,100335.81
2022-09-09T03:50:58.712Z,100340.09
2022-09-09T03:53:25.805Z,100342.41
2022-09-09T03:55:55.625Z,100338.94
2022-09-09T03:58:25.086Z,100345.19
2022-09-09T04:00:57.348Z,100346.81
2022-09-09T04:03:28.027Z,100346.97
2022-09-09T04:05:56.516Z,100344.19
2022-09-09T04:08:26.239Z,100344.19
2022-09-09T04:10:53.558Z,100341.41
2022-09-09T04:13:20.724Z,100344.03
2022-09-09T04:15:58.459Z,100354.56
2022-09-09T04:18:26.903Z,100358.00
2022-09-09T04:20:54.495Z,100348.97
2022-09-09T04:23:21.464Z,100346.66
2022-09-09T04:25:49.957Z,100342.19
2022-09-09T04:28:20.377Z,100345.81
2022-09-09T04:30:47.024Z,100329.03
2022-09-09T04:33:15.161Z,100343.03
2022-09-09T04:35:50.353Z,100341.91
2022-09-09T04:38:18.478Z,100349.63
2022-09-09T04:40:48.533Z,100344.03
2022-09-09T04:43:15.721Z,100339.28
2022-09-09T04:45:42.996Z,100335.50
2022-09-09T04:48:10.721Z,100335.31
2022-09-09T04:50:37.144Z,100334.19
2022-09-09T04:53:05.922Z,100339.28
2022-09-09T04:55:33.211Z,100337.47
2022-09-09T04:58:07.677Z,100337.47
2022-09-09T05:00:38.265Z,100348.50
2022-09-09T05:03:05.956Z,100342.09
2022-09-09T05:05:35.139Z,100339.97
2022-09-09T05:08:10.682Z,100336.00
2022-09-09T05:10:39.651Z,100340.97
2022-09-09T05:13:07.482Z,100344.41
2022-09-09T05:15:34.108Z,100337.00
2022-09-09T05:18:02.305Z,100343.75
2022-09-09T05:20:29.292Z,100347.03
2022-09-09T05:22:57.462Z,100338.81
2022-09-09T05:25:26.906Z,100347.19
2022-09-09T05:27:54.692Z,100341.78
2022-09-09T05:30:24.201Z,100337.34
2022-09-09T05:32:51.123Z,100349.53
2022-09-09T05:35:19.535Z,100342.16
2022-09-09T05:37:46.989Z,100338.16
2022-09-09T05:40:13.558Z,100346.69
2022-09-09T05:42:40.639Z,100351.00
2022-09-09T05:45:08.941Z,100351.69
2022-09-09T05:47:38.144Z,100340.66
2022-09-09T05:50:05.387Z,100341.78
2022-09-09T05:52:32.833Z,100346.06
2022-09-09T05:55:00.249Z,100343.28
2022-09-09T05:57:26.660Z,100351.00
2022-09-09T05:59:53.154Z,100357.13
2022-09-09T06:02:19.736Z,100355.47
2022-09-09T06:04:46.355Z,100348.72
2022-09-09T06:07:14.158Z,100348.72
2022-09-09T06:09:40.571Z,100347.06
2022-09-09T06:12:07.400Z,100354.13
2022-09-09T06:14:33.817Z,100348.69
2022-09-09T06:17:00.299Z,100351.19
2022-09-09T06:19:27.428Z,100353.13
2022-09-09T06:21:53.876Z,100357.25
2022-09-09T06:24:21.043Z,100356.94
2022-09-09T06:26:47.532Z,100352.63
2022-09-09T06:29:13.950Z,100353.81
2022-09-09T06:31:40.638Z,100350.66
2022-09-09T06:34:08.627Z,100350.91
2022-09-09T06:36:39.622Z,100349.09
2022-09-09T06:39:12.161Z,100351.94
2022-09-09T06:41:40.629Z,100349.06
2022-09-09T06:44:07.046Z,100350.97
2022-09-09T06:46:34.165Z,100343.59
2022-09-09T06:49:01.321Z,100335.81
2022-09-09T06:51:32.780Z,100338.00
2022-09-09T06:54:03.049Z,100336.66
2022-09-09T06:56:34.011Z,100336.91
2022-09-09T06:59:03.473Z,100345.28
2022-09-09T07:01:32.771Z,100351.56
2022-09-09T07:04:01.585Z,100348.94
2022-09-09T07:06:30.273Z,100352.69
2022-09-09T07:08:59.960Z,100356.78
2022-09-09T07:11:32.567Z,100363.78
2022-09-09T07:14:00.425Z,100360.56
2022-09-09T07:16:28.543Z,100357.88
2022-09-09T07:19:01.641Z,100357.41
2022-09-09T07:21:30.098Z,100360.66
2022-09-09T07:23:56.929Z,100362.31
2022-09-09T07:26:26.713Z,100369.63
2022-09-09T07:28:54.542Z,100363.63
2022-09-09T07:31:25.033Z,100366.53
2022-09-09T07:33:51.534Z,100374.38
2022-09-09T07:36:27.925Z,100372.41
2022-09-09T07:38:59.675Z,100370.25
2022-09-09T07:41:35.302Z,100382.31
2022-09-09T07:44:09.853Z,100377.69
2022-09-09T07:46:37.358Z,100381.69
2022-09-09T07:49:04.626Z,100378.09
2022-09-09T07:51:34.351Z,100375.84
2022-09-09T07:54:04.167Z,100379.28
2022-09-09T07:56:33.546Z,100381.75
2022-09-09T07:59:00.903Z,100383.22
2022-09-09T08:01:30.850Z,100378.88
2022-09-09T08:04:02.592Z,100373.13
2022-09-09T08:06:59.377Z,100394.28
2022-09-09T08:09:28.107Z,100377.59
2022-09-09T08:11:54.570Z,100366.28
2022-09-09T08:14:21.092Z,100372.22
2022-09-09T08:16:49.079Z,100384.44
2022-09-09T08:19:18.889Z,100382.81
2022-09-09T08:21:45.999Z,100387.22
2022-09-09T08:24:13.423Z,100382.81
2022-09-09T08:26:45.837Z,100390.59
2022-09-09T08:29:14.110Z,100380.31
2022-09-09T08:31:43.461Z,100378.75
2022-09-09T08:34:10.542Z,100379.59
2022-09-09T08:36:43.456Z,100390.91
2022-09-09T08:39:11.901Z,100394.41
2022-09-09T08:41:59.589Z,100394.56
2022-09-09T08:44:34.956Z,100392.00
2022-09-09T08:47:13.756Z,100392.94
2022-09-09T08:49:56.391Z,100401.25
2022-09-09T08:52:25.750Z,100403.53
2022-09-09T08:54:53.281Z,100397.16
2022-09-09T08:57:28.982Z,100399.88
2022-09-09T08:59:57.592Z,100408.78
2022-09-09T09:02:36.705Z,100412.88
2022-09-09T09:05:32.813Z,100408.78
2022-09-09T09:08:31.011Z,100414.53
2022-09-09T09:11:01.403Z,100419.09
2022-09-09T09:13:35.151Z,100411.91
2022-09-09T09:16:13.096Z,100414.13
2022-09-09T09:18:39.582Z,100429.16
2022-09-09T09:21:17.278Z,100422.84
2022-09-09T09:23:55.580Z,100423.31
2022-09-09T09:26:24.771Z,100416.56
2022-09-09T09:28:52.713Z,100415.97
2022-09-09T09:31:20.905Z,100414.00
2022-09-09T09:33:53.972Z,100409.66
2022-09-09T09:36:33.824Z,100411.31
2022-09-09T09:41:48.571Z,100410.00
2022-09-09T09:44:33.450Z,100401.44
2022-09-09T09:47:10.269Z,100425.06
2022-09-09T09:49:36.680Z,100406.38
2022-09-09T09:52:05.033Z,100423.03
2022-09-09T09:54:38.290Z,100406.22
2022-09-09T09:57:13.274Z,100401.50
2022-09-09T09:59:41.138Z,100400.09
2022-09-09T10:02:37.564Z,100400.22
2022-09-09T10:05:15.190Z,100395.47
2022-09-09T10:07:41.820Z,100395.41
2022-09-09T10:10:16.472Z,100395.41
2022-09-09T10:13:07.952Z,100398.38
2022-09-09T10:16:15.990Z,100392.31
2022-09-09T10:18:52.540Z,100401.69
2022-09-09T10:21:32.961Z,100398.44
2022-09-09T10:24:27.203Z,100401.88
2022-09-09T10:27:06.557Z,100400.47
2022-09-09T10:29:45.214Z,100389.50
2022-09-09T10:32:36.987Z,100399.47
2022-09-09T10:35:22.027Z,100387.69
2022-09-09T10:38:14.778Z,100391.66
2022-09-09T10:40:59.298Z,100397.50
2022-09-09T10:43:56.354Z,100391.97
2022-09-09T10:46:46.771Z,100380.50
2022-09-09T10:49:56.728Z,100382.75
2022-09-09T10:52:43.291Z,100391.88
2022-09-09T10:55:15.762Z,100395.34
2022-09-09T10:57:53.149Z,100402.22
2022-09-09T11:00:23.969Z,100406.78
2022-09-09T11:02:59.583Z,100401.16
2022-09-09T11:05:34.935Z,100394.28
2022-09-09T11:08:13.176Z,100396.13
2022-09-09T11:10:56.090Z,100392.19
2022-09-09T11:13:32.695Z,100394.72
2022-09-09T11:16:20.416Z,100391.97
2022-09-09T11:18:48.231Z,100391.22
2022-09-09T11:21:28.490Z,100391.97
2022-09-09T11:24:06.614Z,100391.84
2022-09-09T11:26:40.066Z,100391.91
2022-09-09T11:29:35.221Z,100379.22
2022-09-09T11:32:11.121Z,100397.59
2022-09-09T11:34:55.031Z,100389.19
2022-09-09T11:37:53.556Z,100386.09
2022-09-09T11:40:24.061Z,100399.41
2022-09-09T11:43:06.907Z,100399.56
2022-09-09T11:45:36.663Z,100415.63
2022-09-09T11:48:05.026Z,100412.88
2022-09-09T11:50:35.374Z,100406.38
2022-09-09T11:53:27.336Z,100396.41
2022-09-09T11:56:06.662Z,100402.53
2022-09-09T11:58:42.469Z,100387.56
2022-09-09T12:01:37.040Z,100388.72
2022-09-09T12:04:16.461Z,100395.50
2022-09-09T12:06:54.468Z,100392.28
2022-09-09T12:09:28.723Z,100395.22
2022-09-09T12:12:26.384Z,100384.94
2022-09-09T12:15:08.256Z,100392.00
2022-09-09T12:17:52.176Z,100391.66
2022-09-09T12:20:34.729Z,100382.63
2022-09-09T12:23:11.720Z,100390.94
2022-09-09T12:25:38.053Z,100401.41
2022-09-09T12:28:18.134Z,100409.66
2022-09-09T12:30:59.781Z,100406.69
2022-09-09T12:33:36.258Z,100392.16
2022-09-09T12:36:05.693Z,100395.41
2022-09-09T12:38:37.167Z,100406.75
2022-09-09T12:41:04.190Z,100400.75
2022-09-09T12:43:30.776Z,100401.81
2022-09-09T12:46:16.154Z,100392.47
2022-09-09T12:48:46.608Z,100400.66
2022-09-09T12:51:26.089Z,100406.44
2022-09-09T12:53:52.970Z,100387.22
2022-09-09T12:56:22.819Z,100382.34
2022-09-09T12:58:52.609Z,100385.03
2022-09-09T13:01:30.493Z,100396.06
2022-09-09T13:03:57.850Z,100379.78
2022-09-09T13:06:29.163Z,100395.50
2022-09-09T13:08:58.292Z,100385.94
2022-09-09T13:11:30.019Z,100386.25
2022-09-09T13:13:58.463Z,100366.81
2022-09-09T13:16:36.595Z,100364.31
2022-09-09T13:19:18.261Z,100367.28
2022-09-09T13:21:44.963Z,100357.53
2022-09-09T13:24:40.781Z,100357.22
2022-09-09T13:27:31.603Z,100350.41
2022-09-09T13:29:58.089Z,100365.06
2022-09-09T13:32:27.878Z,100365.41
2022-09-09T13:35:00.036Z,100362.75
2022-09-09T13:37:35.378Z,100368.94
2022-09-09T13:40:03.426Z,100367.03
2022-09-09T13:42:33.425Z,100358.63
2022-09-09T13:45:05.212Z,100356.75
2022-09-09T13:47:35.372Z,100347.47
2022-09-09T13:50:21.247Z,100346.38
2022-09-09T13:52:52.538Z,100351.16
2022-09-09T13:55:19.964Z,100334.78
2022-09-09T13:57:57.540Z,100334.81
2022-09-09T14:00:27.532Z,100339.66
2022-09-09T14:02:56.054Z,100333.44
2022-09-09T14:05:23.281Z,100341.56
2022-09-09T14:07:53.157Z,100351.91
2022-09-09T14:10:20.168Z,100348.66
2022-09-09T14:12:47.674Z,100349.34
2022-09-09T14:15:15.399Z,100350.66
2022-09-09T14:17:41.929Z,100345.34
2022-09-09T14:20:10.190Z,100350.72
2022-09-09T14:22:37.399Z,100360.22
2022-09-09T14:25:04.493Z,100344.22
2022-09-09T14:27:31.096Z,100366.75
2022-09-09T14:29:58.689Z,100372.47
2022-09-09T14:32:25.250Z,100373.72
2022-09-09T14:34:51.709Z,100394.59
2022-09-09T14:37:18.796Z,100382.97
2022-09-09T14:39:45.728Z,100402.34
2022-09-09T14:42:12.261Z,100399.41
2022-09-09T14:44:39.368Z,100398.50
2022-09-09T14:47:06.954Z,100381.97
2022-09-09T14:49:33.335Z,100368.03
2022-09-09T14:51:59.864Z,100375.78
2022-09-09T14:54:26.934Z,100378.03
2022-09-09T14:56:53.418Z,100368.00
2022-09-09T14:59:19.863Z,100364.03
2022-09-09T15:01:46.499Z,100367.63
2022-09-09T15:04:15.577Z,100358.06
2022-09-09T15:06:44.083Z,100353.06
2022-09-09T15:09:11.153Z,100356.31
2022-09-09T15:11:38.895Z,100351.41
2022-09-09T15:14:07.737Z,100348.13
2022-09-09T15:16:34.805Z,100345.66
2022-09-09T15:19:02.405Z,100344.38
2022-09-09T15:21:31.478Z,100356.69
2022-09-09T15:23:58.859Z,100357.34
2022-09-09T15:26:26.841Z,100358.63
2022-09-09T15:28:53.281Z,100367.00
2022-09-09T15:31:25.085Z,100351.13
2022-09-09T15:34:02.542Z,100357.06
2022-09-09T15:36:43.867Z,100360.81
2022-09-09T15:39:13.827Z,100358.72
2022-09-09T15:41:41.040Z,100354.31
2022-09-09T15:44:07.669Z,100352.88
2022-09-09T15:46:38.257Z,100352.16
2022-09-09T15:49:06.397Z,100348.41
2022-09-09T15:51:48.993Z,100347.09
2022-09-09T15:54:17.905Z,100356.69
2022-09-09T15:56:45.526Z,100349.38
2022-09-09T15:59:12.396Z,100364.28
2022-09-09T16:01:44.013Z,100360.09
2022-09-09T16:04:11.255Z,100367.47
2022-09-09T16:06:37.801Z,100363.38
2022-09-09T16:09:06.650Z,100363.91
2022-09-09T16:11:37.263Z,100370.66
2022-09-09T16:14:04.959Z,100367.69
2022-09-09T16:16:31.763Z,100368.09
2022-09-09T16:19:01.008Z,100366.91
2022-09-09T16:21:33.866Z,100373.81
2022-09-09T16:24:02.265Z,100374.16
2022-09-09T16:26:31.684Z,100380.72
2022-09-09T16:28:59.865Z,100373.59
2022-09-09T16:31:28.190Z,100366.75
2022-09-09T16:33:55.340Z,100365.59
2022-09-09T16:36:23.844Z,100372.88
2022-09-09T16:38:58.729Z,100368.53
2022-09-09T16:41:30.140Z,100369.56
2022-09-09T16:43:59.143Z,100364.19
2022-09-09T16:46:26.525Z,100363.09
2022-09-09T16:48:53.258Z,100370.47
2022-09-09T16:51:35.228Z,100370.31
2022-09-09T16:54:03.905Z,100382.06
2022-09-09T16:56:37.757Z,100377.88
2022-09-09T16:59:07.706Z,100378.94
2022-09-09T17:01:38.434Z,100375.75
2022-09-09T17:04:08.302Z,100382.47
2022-09-09T17:06:37.072Z,100377.47
2022-09-09T17:09:06.814Z,100372.19
2022-09-09T17:11:33.655Z,100388.84
2022-09-09T17:14:01.326Z,100382.28
2022-09-09T17:16:31.081Z,100381.81
2022-09-09T17:18:59.626Z,100396.72
2022-09-09T17:21:27.815Z,100395.31
2022-09-09T17:23:55.458Z,100398.16
2022-09-09T17:26:24.340Z,100399.31
2022-09-09T17:28:50.959Z,100394.56
2022-09-09T17:31:19.001Z,100416.22
2022-09-09T17:33:48.885Z,100412.13
2022-09-09T17:36:21.000Z,100410.47
2022-09-09T17:38:47.832Z,100418.56
2022-09-09T17:41:35.047Z,100420.03
2022-09-09T17:44:02.202Z,100421.56
2022-09-09T17:46:41.263Z,100434.78
2022-09-09T17:49:13.350Z,100441.59
2022-09-09T17:51:42.305Z,100443.91
2022-09-09T17:54:18.527Z,100439.63
2022-09-09T17:56:46.386Z,100432.06
2022-09-09T17:59:14.698Z,100431.72
2022-09-09T18:01:47.233Z,100434.69
2022-09-09T18:04:15.848Z,100429.59
2022-09-09T18:06:45.395Z,100438.56
2022-09-09T18:09:14.418Z,100437.06
2022-09-09T18:11:45.370Z,100448.47
2022-09-09T18:14:16.284Z,100447.63
2022-09-09T18:16:42.822Z,100450.00
2022-09-09T18:19:13.697Z,100452.13
2022-09-09T18:21:41.663Z,100446.84
2022-09-09T18:24:08.972Z,100457.25
2022-09-09T18:26:35.747Z,100460.22
2022-09-09T18:29:06.539Z,100462.06
2022-09-09T18:31:34.316Z,100466.50
2022-09-09T18:34:03.618Z,100469.00
2022-09-09T18:36:34.101Z,100464.88
2022-09-09T18:39:03.308Z,100465.50
2022-09-09T18:41:35.802Z,100475.59
2022-09-09T18:44:05.350Z,100472.31
2022-09-09T18:46:34.918Z,100462.59
2022-09-09T18:49:02.062Z,100469.88
2022-09-09T18:51:29.878Z,100461.78
2022-09-09T18:54:02.498Z,100466.59
2022-09-09T18:56:29.539Z,100477.31
2022-09-09T18:58:59.068Z,100466.28
2022-09-09T19:01:26.608Z,100478.50
2022-09-09T19:03:54.284Z,100483.44
2022-09-09T19:06:24.139Z,100478.16
2022-09-09T19:08:55.203Z,100479.78
2022-09-09T19:11:24.550Z,100488.91
2022-09-09T19:14:00.873Z,100482.31
2022-09-09T19:16:29.697Z,100493.69
2022-09-09T19:19:03.062Z,100484.94
2022-09-09T19:21:33.476Z,100493.19
2022-09-09T19:24:02.530Z,100491.72
2022-09-09T19:26:32.172Z,100496.34
2022-09-09T19:29:02.778Z,100500.44
2022-09-09T19:31:30.307Z,100508.53
2022-09-09T19:33:57.279Z,100501.28
2022-09-09T19:36:25.493Z,100511.47
2022-09-09T19:38:54.317Z,100511.47
2022-09-09T19:41:24.571Z,100514.63
2022-09-09T19:43:52.483Z,100516.59
2022-09-09T19:46:19.223Z,100514.47
2022-09-09T19:48:46.865Z,100517.09
2022-09-09T19:51:16.669Z,100516.44
2022-09-09T19:53:49.830Z,100528.97
2022-09-09T19:56:18.833Z,100519.09
2022-09-09T19:58:47.190Z,100523.03
2022-09-09T20:01:25.539Z,100522.88
2022-09-09T20:03:54.489Z,100527.66
2022-09-09T20:06:24.446Z,100526.84
2022-09-09T20:08:51.140Z,100535.91
2022-09-09T20:11:18.242Z,100528.63
2022-09-09T20:13:44.699Z,100532.09
2022-09-09T20:16:14.893Z,100532.25
2022-09-09T20:18:45.380Z,100532.59
2022-09-09T20:21:13.278Z,100544.13
2022-09-09T20:23:40.387Z,100539.81
2022-09-09T20:26:09.289Z,100539.03
2022-09-09T20:28:38.472Z,100546.28
2022-09-09T20:31:07.177Z,100543.63
2022-09-09T20:33:35.820Z,100550.72
2022-09-09T20:36:12.889Z,100539.19
2022-09-09T20:39:03.802Z,100553.19
2022-09-09T20:41:32.308Z,100547.44
2022-09-09T20:44:01.472Z,100550.22
2022-09-09T20:46:39.217Z,100555.34
2022-09-09T20:49:07.996Z,100560.63
2022-09-09T20:51:35.663Z,100560.44
2022-09-09T20:54:23.635Z,100556.00
2022-09-09T20:56:51.885Z,100563.91
2022-09-09T20:59:22.182Z,100570.03
2022-09-09T21:01:48.914Z,100564.75
2022-09-09T21:04:17.614Z,100566.88
2022-09-09T21:06:44.685Z,100561.91
2022-09-09T21:09:11.580Z,100549.56
2022-09-09T21:11:38.609Z,100552.69
2022-09-09T21:14:05.881Z,100548.56
2022-09-09T21:16:32.511Z,100551.34
2022-09-09T21:19:01.877Z,100548.91
2022-09-09T21:21:28.388Z,100539.34
2022-09-09T21:24:00.342Z,100550.53
2022-09-09T21:26:26.916Z,100539.84
2022-09-09T21:28:54.858Z,100547.88
2022-09-09T21:31:27.479Z,100541.97
2022-09-09T21:33:55.000Z,100547.25
2022-09-09T21:36:21.463Z,100544.59
2022-09-09T21:38:47.857Z,100544.75
2022-09-09T21:41:15.839Z,100539.47
2022-09-09T21:43:43.629Z,100553.00
2022-09-09T21:46:15.520Z,100538.81
2022-09-09T21:48:42.446Z,100537.84
2022-09-09T21:51:11.676Z,100536.84
2022-09-09T21:53:39.567Z,100539.63
2022-09-09T21:56:09.802Z,100538.63
2022-09-09T21:58:37.164Z,100540.13
2022-09-09T22:01:12.379Z,100541.25
2022-09-09T22:03:39.173Z,100542.09
2022-09-09T22:06:10.192Z,100539.78
2022-09-09T22:08:36.822Z,100539.78
2022-09-09T22:11:22.738Z,100532.88
2022-09-09T22:13:49.851Z,100533.84
2022-09-09T22:16:19.358Z,100536.97
2022-09-09T22:18:51.585Z,100538.44
2022-09-09T22:21:19.076Z,100547.34
2022-09-09T22:23:51.245Z,100541.09
2022-09-09T22:26:17.751Z,100548.47
2022-09-09T22:28:44.166Z,100543.38
2022-09-09T22:31:10.650Z,100547.94
2022-09-09T22:33:37.251Z,100537.72
2022-09-09T22:36:04.809Z,100552.22
2022-09-09T22:38:35.203Z,100549.75
2022-09-09T22:41:02.901Z,100553.84
2022-09-09T22:43:32.319Z,100547.88
2022-09-09T22:46:00.359Z,100543.59
2022-09-09T22:48:26.901Z,100550.84
2022-09-09T22:50:53.740Z,100542.94
2022-09-09T22:53:20.181Z,100556.44
2022-09-09T22:56:00.231Z,100554.78
2022-09-09T22:58:29.095Z,100558.41
2022-09-09T23:00:59.389Z,100556.09
2022-09-09T23:03:27.302Z,100545.72
2022-09-09T23:05:59.107Z,100555.41
2022-09-09T23:08:27.561Z,100555.28
2022-09-09T23:10:55.721Z,100558.06
2022-09-09T23:13:23.500Z,100557.91
2022-09-09T23:15:50.118Z,100558.38
2022-09-09T23:18:16.585Z,100557.03
2022-09-09T23:20:43.168Z,100550.44
2022-09-09T23:23:11.522Z,100560.97
2022-09-09T23:25:38.104Z,100554.88
2022-09-09T23:28:04.767Z,100567.00
2022-09-09T23:30:31.195Z,100560.94
2022-09-09T23:32:57.715Z,100555.75
2022-09-09T23:35:24.111Z,100566.97
2022-09-09T23:37:50.533Z,100563.66
2022-09-09T23:40:17.061Z,100566.28
2022-09-09T23:42:47.513Z,100570.38
2022-09-09T23:45:14.947Z,100554.06
2022-09-09T23:47:41.399Z,100563.78
2022-09-09T23:50:08.812Z,100563.78
2022-09-09T23:52:36.025Z,100565.25
2022-09-09T23:55:02.811Z,100570.69
2022-09-09T23:57:29.213Z,100562.81
2022-09-09T23:59:55.665Z,100560.47
